createdAt,value
2022-11-24T00:01:12.219Z,10.03
2022-11-24T00:03:45.118Z,9.99
2022-11-24T00:06:18.726Z,9.98
2022-11-24T00:08:51.827Z,9.94
2022-11-24T00:11:27.425Z,9.91
2022-11-24T00:14:00.227Z,9.89
2022-11-24T00:16:34.158Z,9.82
2022-11-24T00:19:09.347Z,9.76
2022-11-24T00:21:41.711Z,9.77
2022-11-24T00:24:14.773Z,9.78
2022-11-24T00:26:47.286Z,9.78
2022-11-24T00:29:19.907Z,9.77
2022-11-24T00:31:52.647Z,9.74
2022-11-24T00:34:25.830Z,9.69
2022-11-24T00:37:00.812Z,9.66
2022-11-24T00:39:34.533Z,9.62
2022-11-24T00:42:07.413Z,9.59
2022-11-24T00:44:40.633Z,9.57
2022-11-24T00:47:13.600Z,9.52
2022-11-24T00:49:46.577Z,9.46
2022-11-24T00:52:18.919Z,9.40
2022-11-24T00:54:51.816Z,9.32
2022-11-24T00:57:25.198Z,9.20
2022-11-24T00:59:57.854Z,9.09
2022-11-24T01:02:30.756Z,9.00
2022-11-24T01:05:03.703Z,8.91
2022-11-24T01:07:37.017Z,8.83
2022-11-24T01:10:11.381Z,8.77
2022-11-24T01:12:44.333Z,8.71
2022-11-24T01:15:16.855Z,8.69
2022-11-24T01:17:49.843Z,8.66
2022-11-24T01:20:23.705Z,8.65
2022-11-24T01:22:56.044Z,8.65
2022-11-24T01:25:28.410Z,8.66
2022-11-24T01:28:01.324Z,8.66
2022-11-24T01:30:33.844Z,8.66
2022-11-24T01:33:06.397Z,8.65
2022-11-24T01:35:39.562Z,8.65
2022-11-24T01:38:12.028Z,8.61
2022-11-24T01:40:45.370Z,8.60
2022-11-24T01:43:23.608Z,8.57
2022-11-24T01:45:57.426Z,8.55
2022-11-24T01:48:34.076Z,8.51
2022-11-24T01:51:13.270Z,8.45
2022-11-24T01:53:50.551Z,8.45
2022-11-24T01:56:24.045Z,8.43
2022-11-24T01:59:01.967Z,8.38
2022-11-24T02:01:35.549Z,8.36
2022-11-24T02:04:11.863Z,8.38
2022-11-24T02:06:47.842Z,8.42
2022-11-24T02:09:27.837Z,8.44
2022-11-24T02:12:03.273Z,8.45
2022-11-24T02:14:39.602Z,8.48
2022-11-24T02:17:11.974Z,8.46
2022-11-24T02:19:53.911Z,8.43
2022-11-24T02:22:35.477Z,8.44
2022-11-24T02:25:18.245Z,8.46
2022-11-24T02:27:53.851Z,8.46
2022-11-24T02:30:26.954Z,8.42
2022-11-24T02:33:00.426Z,8.35
2022-11-24T02:35:34.299Z,8.31
2022-11-24T02:38:06.711Z,8.27
2022-11-24T02:40:39.489Z,8.27
2022-11-24T02:43:15.358Z,8.24
2022-11-24T02:45:47.972Z,8.24
2022-11-24T02:48:20.781Z,8.24
2022-11-24T02:50:53.248Z,8.26
2022-11-24T02:53:27.212Z,8.24
2022-11-24T02:56:01.188Z,8.22
2022-11-24T02:58:33.658Z,8.21
2022-11-24T03:01:07.798Z,8.22
2022-11-24T03:03:41.840Z,8.25
2022-11-24T03:06:14.463Z,8.26
2022-11-24T03:08:46.955Z,8.30
2022-11-24T03:11:19.628Z,8.35
2022-11-24T03:13:52.820Z,8.39
2022-11-24T03:16:25.609Z,8.43
2022-11-24T03:18:58.122Z,8.49
2022-11-24T03:21:30.566Z,8.53
2022-11-24T03:24:03.037Z,8.48
2022-11-24T03:26:37.091Z,8.38
2022-11-24T03:29:09.642Z,8.34
2022-11-24T03:31:42.094Z,8.35
2022-11-24T03:34:15.591Z,8.37
2022-11-24T03:36:47.960Z,8.42
2022-11-24T03:39:20.527Z,8.43
2022-11-24T03:41:53.668Z,8.43
2022-11-24T03:44:26.096Z,8.41
2022-11-24T03:46:58.676Z,8.41
2022-11-24T03:49:31.067Z,8.39
2022-11-24T03:52:07.772Z,8.39
2022-11-24T03:54:40.618Z,8.39
2022-11-24T03:57:13.327Z,8.39
2022-11-24T03:59:45.919Z,8.40
2022-11-24T04:02:18.342Z,8.40
2022-11-24T04:04:52.690Z,8.41
2022-11-24T04:07:25.220Z,8.43
2022-11-24T04:09:57.684Z,8.44
2022-11-24T04:12:45.145Z,8.45
2022-11-24T04:15:19.818Z,8.45
2022-11-24T04:17:52.823Z,8.42
2022-11-24T04:20:25.715Z,8.41
2022-11-24T04:22:58.184Z,8.42
2022-11-24T04:25:30.526Z,8.43
2022-11-24T04:28:03.439Z,8.45
2022-11-24T04:30:36.278Z,8.49
2022-11-24T04:33:08.942Z,8.54
2022-11-24T04:35:41.488Z,8.58
2022-11-24T04:38:13.799Z,8.62
2022-11-24T04:41:06.517Z,8.65
2022-11-24T04:43:40.865Z,8.65
2022-11-24T04:46:14.059Z,8.63
2022-11-24T04:48:46.518Z,8.63
2022-11-24T04:51:18.883Z,8.62
2022-11-24T04:53:52.664Z,8.62
2022-11-24T04:56:25.149Z,8.58
2022-11-24T04:58:57.468Z,8.59
2022-11-24T05:01:30.010Z,8.61
2022-11-24T05:04:03.158Z,8.63
2022-11-24T05:06:35.645Z,8.65
2022-11-24T05:09:09.202Z,8.67
2022-11-24T05:11:42.089Z,8.68
2022-11-24T05:14:14.431Z,8.69
2022-11-24T05:16:47.207Z,8.72
2022-11-24T05:19:20.110Z,8.76
2022-11-24T05:21:54.404Z,8.77
2022-11-24T05:24:27.172Z,8.80
2022-11-24T05:27:00.351Z,8.81
2022-11-24T05:29:33.290Z,8.81
2022-11-24T05:32:07.206Z,8.80
2022-11-24T05:34:39.722Z,8.79
2022-11-24T05:37:12.597Z,8.79
2022-11-24T05:39:44.927Z,8.80
2022-11-24T05:42:34.719Z,8.81
2022-11-24T05:45:09.901Z,8.80
2022-11-24T05:47:43.203Z,8.77
2022-11-24T05:50:17.277Z,8.76
2022-11-24T05:52:50.198Z,8.77
2022-11-24T05:55:23.179Z,8.78
2022-11-24T05:58:02.204Z,8.76
2022-11-24T06:00:35.786Z,8.72
2022-11-24T06:03:09.243Z,8.74
2022-11-24T06:05:41.993Z,8.77
2022-11-24T06:08:14.879Z,8.81
2022-11-24T06:10:48.164Z,8.82
2022-11-24T06:13:20.710Z,8.80
2022-11-24T06:15:53.646Z,8.79
2022-11-24T06:18:28.517Z,8.80
2022-11-24T06:21:10.949Z,8.79
2022-11-24T06:23:44.283Z,8.79
2022-11-24T06:26:18.042Z,8.80
2022-11-24T06:28:50.894Z,8.81
2022-11-24T06:31:23.748Z,8.79
2022-11-24T06:33:57.743Z,8.79
2022-11-24T06:36:31.062Z,8.81
2022-11-24T06:39:06.180Z,8.83
2022-11-24T06:41:39.637Z,8.87
2022-11-24T06:44:15.286Z,8.88
2022-11-24T06:46:52.707Z,8.86
2022-11-24T06:49:26.851Z,8.90
2022-11-24T06:52:02.403Z,8.90
2022-11-24T06:54:37.578Z,8.89
2022-11-24T06:57:14.418Z,8.86
2022-11-24T06:59:47.818Z,8.86
2022-11-24T07:02:20.283Z,8.88
2022-11-24T07:04:52.774Z,8.89
2022-11-24T07:07:25.797Z,8.88
2022-11-24T07:09:58.274Z,8.89
2022-11-24T07:12:35.285Z,8.90
2022-11-24T07:15:11.290Z,8.89
2022-11-24T07:17:45.540Z,8.93
2022-11-24T07:20:18.670Z,8.98
2022-11-24T07:22:51.730Z,9.01
2022-11-24T07:25:24.201Z,9.04
2022-11-24T07:28:01.482Z,9.08
2022-11-24T07:30:35.295Z,9.08
2022-11-24T07:33:07.671Z,9.09
2022-11-24T07:35:40.122Z,9.11
2022-11-24T07:38:12.491Z,9.11
2022-11-24T07:40:44.909Z,9.13
2022-11-24T07:43:20.368Z,9.11
2022-11-24T07:45:57.262Z,9.08
2022-11-24T07:48:30.686Z,9.07
2022-11-24T07:51:04.481Z,9.06
2022-11-24T07:53:37.868Z,9.10
2022-11-24T07:56:12.730Z,9.17
2022-11-24T07:58:49.775Z,9.20
2022-11-24T08:01:25.244Z,9.23
2022-11-24T08:03:58.167Z,9.26
2022-11-24T08:06:39.766Z,9.31
2022-11-24T08:09:18.047Z,9.34
2022-11-24T08:11:50.764Z,9.38
2022-11-24T08:14:27.858Z,9.35
2022-11-24T08:17:02.346Z,9.33
2022-11-24T08:19:36.319Z,9.34
2022-11-24T08:22:10.535Z,9.34
2022-11-24T08:24:47.944Z,9.36
2022-11-24T08:27:21.368Z,9.42
2022-11-24T08:29:53.743Z,9.45
2022-11-24T08:32:26.686Z,9.45
2022-11-24T08:35:13.451Z,9.47
2022-11-24T08:37:47.047Z,9.47
2022-11-24T08:40:22.917Z,9.44
2022-11-24T08:42:55.637Z,9.43
2022-11-24T08:45:30.770Z,9.44
2022-11-24T08:48:03.821Z,9.46
2022-11-24T08:50:36.394Z,9.47
2022-11-24T08:53:08.810Z,9.45
2022-11-24T08:55:42.221Z,9.45
2022-11-24T08:58:17.197Z,9.38
2022-11-24T09:00:51.542Z,9.34
2022-11-24T09:03:24.783Z,9.34
2022-11-24T09:05:58.075Z,9.31
2022-11-24T09:08:32.699Z,9.31
2022-11-24T09:11:08.455Z,9.33
2022-11-24T09:13:42.478Z,9.34
2022-11-24T09:16:17.911Z,9.34
2022-11-24T09:18:55.997Z,9.34
2022-11-24T09:21:30.126Z,9.34
2022-11-24T09:24:05.343Z,9.39
2022-11-24T09:26:46.155Z,9.39
2022-11-24T09:29:21.284Z,9.41
2022-11-24T09:31:53.643Z,9.39
2022-11-24T09:34:26.095Z,9.41
2022-11-24T09:36:59.354Z,9.43
2022-11-24T09:39:32.202Z,9.44
2022-11-24T09:42:17.011Z,9.43
2022-11-24T09:45:15.342Z,9.45
2022-11-24T09:48:04.813Z,9.52
2022-11-24T09:50:40.276Z,9.56
2022-11-24T09:53:19.007Z,9.60
2022-11-24T09:55:55.603Z,9.65
2022-11-24T09:58:50.759Z,9.67
2022-11-24T10:01:26.085Z,9.68
2022-11-24T10:04:05.588Z,9.73
2022-11-24T10:06:48.957Z,9.76
2022-11-24T10:09:39.185Z,9.77
2022-11-24T10:12:24.423Z,9.79
2022-11-24T10:15:14.923Z,9.80
2022-11-24T10:17:56.115Z,9.80
2022-11-24T10:20:35.848Z,9.82
2022-11-24T10:23:25.621Z,9.81
2022-11-24T10:26:01.614Z,9.79
2022-11-24T10:28:37.037Z,9.77
2022-11-24T10:31:24.103Z,9.74
2022-11-24T10:33:58.244Z,9.74
2022-11-24T10:36:45.001Z,9.72
2022-11-24T10:39:23.731Z,9.71
2022-11-24T10:42:02.753Z,9.63
2022-11-24T10:44:35.779Z,9.62
2022-11-24T10:47:19.925Z,9.66
2022-11-24T10:50:03.254Z,9.69
2022-11-24T10:52:44.051Z,9.66
2022-11-24T10:55:21.594Z,9.66
2022-11-24T10:57:54.598Z,9.66
2022-11-24T11:00:37.139Z,9.64
2022-11-24T11:03:21.730Z,9.60
2022-11-24T11:05:58.400Z,9.59
2022-11-24T11:08:32.253Z,9.56
2022-11-24T11:11:22.045Z,9.55
2022-11-24T11:14:03.989Z,9.51
2022-11-24T11:16:41.305Z,9.54
2022-11-24T11:19:50.680Z,9.61
2022-11-24T11:22:29.054Z,9.70
2022-11-24T11:25:24.982Z,9.74
2022-11-24T11:28:19.250Z,9.77
2022-11-24T11:31:22.134Z,9.80
2022-11-24T11:34:21.882Z,9.85
2022-11-24T11:36:57.393Z,9.85
2022-11-24T11:39:33.558Z,9.85
2022-11-24T11:42:45.229Z,9.86
2022-11-24T11:45:26.680Z,9.91
2022-11-24T11:48:12.011Z,9.99
2022-11-24T11:53:50.339Z,10.12
2022-11-24T11:56:30.460Z,10.12
2022-11-24T11:59:24.773Z,10.14
2022-11-24T12:02:24.687Z,10.18
2022-11-24T12:05:02.459Z,10.24
2022-11-24T12:07:50.268Z,10.29
2022-11-24T12:10:35.154Z,10.35
2022-11-24T12:13:43.622Z,10.40
2022-11-24T12:16:35.810Z,10.44
2022-11-24T12:19:29.212Z,10.48
2022-11-24T12:22:15.108Z,10.52
2022-11-24T12:24:57.520Z,10.52
2022-11-24T12:27:46.619Z,10.53
2022-11-24T12:30:22.490Z,10.53
2022-11-24T12:33:18.309Z,10.52
2022-11-24T12:36:03.780Z,10.46
2022-11-24T12:38:56.420Z,10.40
2022-11-24T12:41:42.775Z,10.33
2022-11-24T12:44:32.792Z,10.26
2022-11-24T12:47:17.980Z,10.18
2022-11-24T12:50:04.605Z,10.14
2022-11-24T12:52:41.347Z,10.08
2022-11-24T12:55:19.863Z,9.97
2022-11-24T12:58:10.592Z,9.87
2022-11-24T13:00:59.508Z,9.72
2022-11-24T13:03:46.763Z,9.59
2022-11-24T13:06:23.695Z,9.47
2022-11-24T13:08:58.183Z,9.38
2022-11-24T13:11:41.150Z,9.30
2022-11-24T13:14:20.266Z,9.19
2022-11-24T13:17:29.298Z,9.11
2022-11-24T13:19:53.859Z,9.04
2022-11-24T13:22:31.401Z,9.03
2022-11-24T13:25:22.556Z,8.99
2022-11-24T13:27:58.005Z,8.97
2022-11-24T13:31:09.843Z,8.97
2022-11-24T13:33:43.743Z,8.99
2022-11-24T13:36:33.969Z,8.95
2022-11-24T13:39:20.385Z,8.91
2022-11-24T13:42:09.783Z,8.92
2022-11-24T13:45:03.286Z,8.90
2022-11-24T13:47:41.926Z,8.87
2022-11-24T13:50:48.570Z,8.85
2022-11-24T13:53:34.358Z,8.83
2022-11-24T13:56:23.397Z,8.86
2022-11-24T13:58:58.261Z,8.88
2022-11-24T14:01:32.634Z,8.93
2022-11-24T14:04:31.907Z,8.95
2022-11-24T14:07:09.446Z,8.97
2022-11-24T14:09:47.355Z,8.95
2022-11-24T14:12:22.147Z,8.94
2022-11-24T14:14:56.862Z,8.90
2022-11-24T14:17:31.694Z,8.84
2022-11-24T14:20:25.437Z,8.80
2022-11-24T14:22:57.971Z,8.74
2022-11-24T14:25:33.390Z,8.62
2022-11-24T14:28:14.736Z,8.56
2022-11-24T14:30:47.179Z,8.48
2022-11-24T14:33:22.194Z,8.44
2022-11-24T14:35:55.423Z,8.43
2022-11-24T14:38:29.622Z,8.40
2022-11-24T14:41:25.608Z,8.39
2022-11-24T14:44:16.680Z,8.37
2022-11-24T14:46:49.764Z,8.34
2022-11-24T14:49:25.153Z,8.34
2022-11-24T14:52:03.668Z,8.34
2022-11-24T14:54:38.748Z,8.35
2022-11-24T14:57:27.273Z,8.35
2022-11-24T15:00:19.582Z,8.37
2022-11-24T15:02:54.833Z,8.37
2022-11-24T15:05:48.755Z,8.37
2022-11-24T15:08:23.364Z,8.37
2022-11-24T15:11:03.942Z,8.36
2022-11-24T15:13:40.363Z,8.38
2022-11-24T15:16:25.471Z,8.41
2022-11-24T15:19:03.457Z,8.45
2022-11-24T15:21:38.343Z,8.48
2022-11-24T15:24:18.958Z,8.48
2022-11-24T15:26:51.296Z,8.47
2022-11-24T15:29:24.038Z,8.46
2022-11-24T15:32:00.570Z,8.48
2022-11-24T15:34:33.296Z,8.50
2022-11-24T15:37:07.459Z,8.50
2022-11-24T15:39:39.821Z,8.50
2022-11-24T15:42:15.557Z,8.47
2022-11-24T15:44:49.602Z,8.46
2022-11-24T15:47:22.460Z,8.45
2022-11-24T15:49:54.964Z,8.44
2022-11-24T15:52:27.618Z,8.44
2022-11-24T15:55:00.456Z,8.43
2022-11-24T15:57:34.406Z,8.42
2022-11-24T16:00:08.982Z,8.39
2022-11-24T16:02:42.068Z,8.35
2022-11-24T16:05:16.935Z,8.34
2022-11-24T16:07:49.852Z,8.34
2022-11-24T16:10:28.200Z,8.32
2022-11-24T16:13:00.687Z,8.32
2022-11-24T16:15:33.372Z,8.31
2022-11-24T16:18:07.574Z,8.29
2022-11-24T16:20:40.906Z,8.27
2022-11-24T16:23:14.387Z,8.23
2022-11-24T16:25:47.056Z,8.18
2022-11-24T16:28:20.418Z,8.14
2022-11-24T16:30:54.057Z,8.10
2022-11-24T16:33:26.714Z,8.06
2022-11-24T16:35:59.813Z,8.01
2022-11-24T16:38:32.363Z,7.95
2022-11-24T16:41:04.918Z,7.85
2022-11-24T16:43:37.290Z,7.79
2022-11-24T16:46:21.176Z,7.75
2022-11-24T16:49:00.315Z,7.72
2022-11-24T16:51:35.201Z,7.71
2022-11-24T16:54:08.643Z,7.68
2022-11-24T16:56:44.111Z,7.64
2022-11-24T16:59:17.479Z,7.61
2022-11-24T17:01:52.186Z,7.60
2022-11-24T17:04:25.148Z,7.57
2022-11-24T17:06:59.388Z,7.56
2022-11-24T17:09:36.008Z,7.51
2022-11-24T17:12:14.270Z,7.47
2022-11-24T17:15:09.327Z,7.44
2022-11-24T17:17:55.207Z,7.42
2022-11-24T17:20:32.028Z,7.43
2022-11-24T17:23:04.759Z,7.43
2022-11-24T17:25:37.269Z,7.42
2022-11-24T17:28:11.053Z,7.41
2022-11-24T17:30:43.633Z,7.39
2022-11-24T17:33:15.974Z,7.39
2022-11-24T17:35:49.327Z,7.40
2022-11-24T17:38:22.338Z,7.40
2022-11-24T17:40:55.083Z,7.41
2022-11-24T17:43:28.774Z,7.41
2022-11-24T17:46:03.656Z,7.39
2022-11-24T17:48:38.582Z,7.35
2022-11-24T17:51:14.017Z,7.32
2022-11-24T17:53:49.486Z,7.31
2022-11-24T17:56:25.441Z,7.27
2022-11-24T17:59:01.197Z,7.24
2022-11-24T18:01:35.566Z,7.21
2022-11-24T18:04:08.251Z,7.21
2022-11-24T18:06:40.791Z,7.18
2022-11-24T18:09:13.523Z,7.14
2022-11-24T18:11:47.939Z,7.12
2022-11-24T18:14:20.492Z,7.09
2022-11-24T18:16:53.210Z,7.07
2022-11-24T18:19:26.434Z,7.04
2022-11-24T18:21:58.776Z,7.01
2022-11-24T18:24:31.081Z,6.98
2022-11-24T18:27:03.574Z,6.93
2022-11-24T18:29:36.112Z,6.88
2022-11-24T18:32:09.678Z,6.83
2022-11-24T18:34:43.363Z,6.80
2022-11-24T18:37:16.584Z,6.79
2022-11-24T18:39:48.931Z,6.82
2022-11-24T18:42:21.291Z,6.82
2022-11-24T18:44:54.479Z,6.80
2022-11-24T18:47:27.062Z,6.80
2022-11-24T18:50:00.534Z,6.80
2022-11-24T18:52:33.495Z,6.77
2022-11-24T18:55:06.780Z,6.76
2022-11-24T18:57:41.435Z,6.71
2022-11-24T19:00:18.935Z,6.68
2022-11-24T19:02:55.505Z,6.69
2022-11-24T19:05:30.104Z,6.72
2022-11-24T19:08:04.297Z,6.74
2022-11-24T19:10:42.040Z,6.75
2022-11-24T19:13:15.830Z,6.70
2022-11-24T19:15:52.170Z,6.68
2022-11-24T19:18:26.829Z,6.68
2022-11-24T19:21:02.682Z,6.67
2022-11-24T19:23:37.665Z,6.64
2022-11-24T19:26:11.965Z,6.63
2022-11-24T19:28:47.630Z,6.60
2022-11-24T19:31:20.971Z,6.58
2022-11-24T19:33:54.893Z,6.58
2022-11-24T19:36:28.106Z,6.58
2022-11-24T19:39:05.204Z,6.56
2022-11-24T19:41:40.748Z,6.59
2022-11-24T19:44:17.880Z,6.60
2022-11-24T19:46:50.343Z,6.61
2022-11-24T19:49:22.880Z,6.62
2022-11-24T19:51:56.753Z,6.61
2022-11-24T19:54:29.390Z,6.61
2022-11-24T19:57:01.722Z,6.57
2022-11-24T19:59:34.752Z,6.54
2022-11-24T20:02:10.465Z,6.55
2022-11-24T20:04:45.108Z,6.56
2022-11-24T20:07:19.154Z,6.56
2022-11-24T20:09:51.657Z,6.57
2022-11-24T20:12:24.441Z,6.56
2022-11-24T20:14:56.930Z,6.58
2022-11-24T20:17:33.017Z,6.59
2022-11-24T20:20:08.531Z,6.60
2022-11-24T20:22:42.581Z,6.62
2022-11-24T20:25:15.538Z,6.64
2022-11-24T20:27:48.024Z,6.66
2022-11-24T20:30:20.500Z,6.68
2022-11-24T20:32:53.095Z,6.70
2022-11-24T20:35:25.558Z,6.71
2022-11-24T20:37:59.941Z,6.72
2022-11-24T20:40:32.718Z,6.71
2022-11-24T20:43:05.502Z,6.73
2022-11-24T20:45:39.058Z,6.75
2022-11-24T20:48:12.414Z,6.77
2022-11-24T20:50:49.740Z,6.79
2022-11-24T20:53:24.596Z,6.81
2022-11-24T20:56:06.084Z,6.83
2022-11-24T20:58:41.657Z,6.84
2022-11-24T21:01:18.045Z,6.86
2022-11-24T21:03:56.401Z,6.86
2022-11-24T21:06:30.858Z,6.87
2022-11-24T21:09:04.114Z,6.87
2022-11-24T21:11:37.342Z,6.86
2022-11-24T21:14:10.455Z,6.87
2022-11-24T21:16:43.976Z,6.86
2022-11-24T21:19:18.889Z,6.85
2022-11-24T21:21:51.909Z,6.86
2022-11-24T21:24:24.692Z,6.82
2022-11-24T21:26:56.978Z,6.82
2022-11-24T21:29:29.691Z,6.85
2022-11-24T21:32:02.739Z,6.83
2022-11-24T21:34:35.402Z,6.82
2022-11-24T21:37:08.371Z,6.82
2022-11-24T21:39:44.690Z,6.83
2022-11-24T21:42:17.343Z,6.85
2022-11-24T21:44:50.362Z,6.84
2022-11-24T21:47:22.668Z,6.83
2022-11-24T21:49:55.550Z,6.84
2022-11-24T21:52:27.987Z,6.88
2022-11-24T21:55:01.141Z,6.86
2022-11-24T21:57:34.482Z,6.86
2022-11-24T22:00:12.054Z,6.81
2022-11-24T22:02:45.032Z,6.75
2022-11-24T22:05:18.008Z,6.72
2022-11-24T22:07:50.612Z,6.76
2022-11-24T22:10:23.509Z,6.81
2022-11-24T22:12:55.925Z,6.83
2022-11-24T22:15:28.596Z,6.84
2022-11-24T22:18:02.004Z,6.90
2022-11-24T22:20:34.770Z,6.92
2022-11-24T22:23:07.100Z,6.92
2022-11-24T22:25:39.593Z,6.88
2022-11-24T22:28:12.193Z,6.82
2022-11-24T22:30:44.675Z,6.88
2022-11-24T22:33:17.965Z,6.93
2022-11-24T22:35:59.722Z,6.95
2022-11-24T22:38:34.105Z,6.95
2022-11-24T22:41:08.522Z,6.93
2022-11-24T22:43:42.738Z,6.95
2022-11-24T22:46:17.921Z,6.92
2022-11-24T22:48:53.084Z,6.92
2022-11-24T22:51:27.950Z,6.89
2022-11-24T22:54:02.361Z,6.94
2022-11-24T22:56:35.738Z,6.94
2022-11-24T22:59:08.022Z,6.96
2022-11-24T23:01:40.448Z,7.01
2022-11-24T23:04:13.250Z,7.01
2022-11-24T23:06:45.903Z,7.00
2022-11-24T23:09:18.395Z,7.03
2022-11-24T23:11:51.835Z,7.05
2022-11-24T23:14:24.405Z,7.06
2022-11-24T23:17:00.898Z,7.10
2022-11-24T23:19:33.367Z,7.09
2022-11-24T23:22:05.852Z,7.06
2022-11-24T23:24:38.342Z,7.05
2022-11-24T23:27:10.719Z,7.04
2022-11-24T23:29:43.136Z,7.00
2022-11-24T23:32:15.619Z,6.99
2022-11-24T23:34:48.195Z,6.99
2022-11-24T23:37:26.454Z,6.95
2022-11-24T23:40:06.862Z,6.95
2022-11-24T23:42:40.775Z,6.94
2022-11-24T23:45:15.989Z,6.95
2022-11-24T23:47:49.973Z,6.94
2022-11-24T23:50:24.104Z,6.96
2022-11-24T23:52:58.617Z,6.97
2022-11-24T23:55:32.020Z,6.98
2022-11-24T23:58:05.295Z,7.00
